Terminal Aerodrome Forecast
Issued by NWS

Home | Current Version | Previous Version | Text Only | Print | Product List | Glossary On
Versions: 1 2 3 4 5 6 7 8 9 10 11 12 13 14 15
422
FTUS45 KTFX 211131
TAFHLN
TAF
KHLN 211131Z 2112/2212 24009KT P6SM SCT080
     FM220000 24008KT P6SM OVC100
     FM221100 22009KT P6SM BKN110 WS015/25030KT=

USA.gov is the U.S. government's official web portal to all federal, state and local government web resources and services.